createdAt,value
2019-03-03T00:00:00.313Z,98070.00
2019-03-03T00:06:26.653Z,98065.95
2019-03-03T00:12:54.791Z,98076.23
2019-03-03T00:23:12.915Z,98058.95
2019-03-03T00:29:49.843Z,98055.13
2019-03-03T00:35:56.163Z,98058.09
2019-03-03T00:42:52.321Z,98053.14
2019-03-03T00:49:35.372Z,98056.40
2019-03-03T00:56:14.326Z,98055.25
2019-03-03T01:02:59.542Z,98042.89
2019-03-03T01:09:59.278Z,98046.19
2019-03-03T01:16:39.466Z,98042.53
2019-03-03T01:26:08.292Z,98022.34
2019-03-03T01:32:35.895Z,98015.42
2019-03-03T01:39:01.741Z,98000.75
2019-03-03T01:45:28.422Z,97995.78
2019-03-03T01:51:55.497Z,97991.87
2019-03-03T01:58:20.423Z,97979.06
2019-03-03T02:04:48.011Z,97963.57
2019-03-03T02:11:16.725Z,97955.09
2019-03-03T02:17:42.934Z,97953.95
2019-03-03T02:28:00.040Z,97958.19
2019-03-03T02:34:17.513Z,97940.28
2019-03-03T02:40:56.732Z,97936.98
2019-03-03T02:47:37.480Z,97931.28
2019-03-03T02:54:16.441Z,97930.30
2019-03-03T03:01:00.305Z,97921.53
2019-03-03T03:08:01.832Z,97905.23
2019-03-03T03:14:50.874Z,97910.81
2019-03-03T03:21:33.638Z,97903.31
2019-03-03T03:32:09.153Z,97917.98
2019-03-03T03:38:46.083Z,97916.68
2019-03-03T03:45:38.165Z,97906.91
2019-03-03T03:52:34.069Z,97902.02
2019-03-03T03:59:28.382Z,97904.49
2019-03-03T04:06:16.203Z,97892.92
2019-03-03T04:16:55.545Z,97884.61
2019-03-03T04:23:49.658Z,97878.77
2019-03-03T04:34:17.460Z,97880.57
2019-03-03T04:41:09.150Z,97891.09
2019-03-03T04:47:59.202Z,97880.13
2019-03-03T04:54:55.015Z,97882.41
2019-03-03T04:57:43.764Z,97868.67
2019-03-03T05:04:38.698Z,97873.20
2019-03-03T05:12:43.679Z,97866.68
2019-03-03T05:18:52.327Z,97855.06
2019-03-03T05:25:22.957Z,97845.08
2019-03-03T05:31:47.224Z,97841.48
2019-03-03T05:37:38.331Z,97828.49
2019-03-03T05:44:08.568Z,97818.82
2019-03-03T05:50:36.173Z,97811.22
2019-03-03T05:57:13.083Z,97805.39
2019-03-03T06:03:52.048Z,97805.02
2019-03-03T06:10:33.257Z,97807.95
2019-03-03T06:13:11.564Z,97816.75
2019-03-03T06:19:05.053Z,97827.31
2019-03-03T06:25:30.902Z,97838.02
2019-03-03T06:31:56.756Z,97841.44
2019-03-03T06:37:46.429Z,97839.05
2019-03-03T06:44:14.046Z,97834.59
2019-03-03T06:50:41.093Z,97836.02
2019-03-03T06:57:12.971Z,97850.61
2019-03-03T07:03:40.606Z,97849.48
2019-03-03T07:10:11.680Z,97857.80
2019-03-03T07:20:19.231Z,97855.63
2019-03-03T07:27:00.653Z,97857.75
2019-03-03T07:33:48.612Z,97852.48
2019-03-03T07:40:28.673Z,97861.89
2019-03-03T07:47:05.602Z,97852.98
2019-03-03T07:53:46.572Z,97861.30
2019-03-03T08:00:14.198Z,97868.46
2019-03-03T08:06:41.245Z,97867.77
2019-03-03T08:13:09.438Z,97872.45
2019-03-03T08:23:21.948Z,97867.72
2019-03-03T08:29:46.585Z,97871.47
2019-03-03T08:35:54.396Z,97861.77
2019-03-03T08:42:43.596Z,97860.90
2019-03-03T08:49:15.533Z,97855.75
2019-03-03T08:56:17.481Z,97859.61
2019-03-03T09:02:58.687Z,97858.38
2019-03-03T09:09:41.547Z,97849.68
2019-03-03T09:16:27.464Z,97850.17
2019-03-03T09:26:13.205Z,97840.31
2019-03-03T09:33:08.557Z,97847.02
2019-03-03T09:39:50.594Z,97849.40
2019-03-03T09:46:29.535Z,97839.13
2019-03-03T09:53:29.694Z,97838.75
2019-03-03T10:00:13.455Z,97839.82
2019-03-03T10:07:14.532Z,97843.59
2019-03-03T10:13:59.886Z,97843.05
2019-03-03T10:21:03.325Z,97847.83
2019-03-03T10:27:41.772Z,97836.02
2019-03-03T10:34:20.676Z,97838.26
2019-03-03T10:41:19.104Z,97818.23
2019-03-03T10:48:07.145Z,97813.83
2019-03-03T10:55:03.265Z,97807.34
2019-03-03T11:01:48.939Z,97806.42
2019-03-03T11:08:31.985Z,97793.09
2019-03-03T11:15:23.344Z,97795.47
2019-03-03T11:22:19.463Z,97786.00
2019-03-03T11:28:55.074Z,97781.25
2019-03-03T11:35:39.402Z,97773.06
2019-03-03T11:42:22.627Z,97765.89
2019-03-03T11:49:09.413Z,97780.27
2019-03-03T11:56:09.561Z,97773.06
2019-03-03T12:02:57.373Z,97756.01
2019-03-03T12:09:42.618Z,97742.38
2019-03-03T12:16:27.622Z,97750.71
2019-03-03T12:23:09.605Z,97727.20
2019-03-03T12:29:25.011Z,97711.55
2019-03-03T12:36:34.279Z,97704.75
2019-03-03T12:43:25.652Z,97692.42
2019-03-03T12:50:05.611Z,97683.59
2019-03-03T12:57:22.980Z,97686.48
2019-03-03T13:04:18.048Z,97690.30
2019-03-03T13:10:56.649Z,97685.31
2019-03-03T13:17:48.002Z,97673.96
2019-03-03T13:28:23.352Z,97661.28
2019-03-03T13:35:11.984Z,97651.82
2019-03-03T13:42:05.280Z,97655.02
2019-03-03T13:48:31.947Z,97659.25
2019-03-03T13:54:57.796Z,97633.19
2019-03-03T14:01:23.965Z,97629.15
2019-03-03T14:08:00.894Z,97625.63
2019-03-03T14:14:28.736Z,97599.18
2019-03-03T14:20:20.215Z,97598.28
2019-03-03T14:30:24.910Z,97586.86
2019-03-03T14:36:51.025Z,97581.99
2019-03-03T14:43:29.972Z,97576.58
2019-03-03T14:50:08.926Z,97566.14
2019-03-03T14:56:36.769Z,97563.13
2019-03-03T15:03:03.597Z,97540.51
2019-03-03T15:09:29.417Z,97538.70
2019-03-03T15:16:07.208Z,97527.06
2019-03-03T15:22:34.186Z,97533.79
2019-03-03T15:32:38.865Z,97513.50
2019-03-03T15:39:09.044Z,97495.78
2019-03-03T15:48:58.645Z,97468.42
2019-03-03T15:55:26.548Z,97465.70
2019-03-03T16:01:51.989Z,97456.77
2019-03-03T16:08:19.370Z,97458.67
2019-03-03T16:14:47.213Z,97462.49
2019-03-03T16:21:26.155Z,97452.23
2019-03-03T16:27:51.977Z,97457.05
2019-03-03T16:34:18.437Z,97453.03
2019-03-03T16:40:57.396Z,97448.70
2019-03-03T16:50:27.166Z,97465.20
2019-03-03T16:56:33.761Z,97457.36
2019-03-03T17:03:00.435Z,97434.42
2019-03-03T17:09:30.377Z,97433.52
2019-03-03T17:16:00.584Z,97420.25
2019-03-03T17:22:28.220Z,97411.30
2019-03-03T17:28:54.886Z,97403.77
2019-03-03T17:35:21.072Z,97390.60
2019-03-03T17:41:58.886Z,97379.83
2019-03-03T17:51:38.163Z,97369.78
2019-03-03T17:58:04.317Z,97356.22
2019-03-03T18:04:35.094Z,97352.69
2019-03-03T18:11:02.164Z,97352.38
2019-03-03T18:17:42.244Z,97343.92
2019-03-03T18:24:08.054Z,97340.11
2019-03-03T18:30:35.896Z,97325.03
2019-03-03T18:37:15.465Z,97319.33
2019-03-03T18:43:11.005Z,97325.14
2019-03-03T18:53:13.127Z,97325.64
2019-03-03T18:59:41.847Z,97303.02
2019-03-03T19:06:09.750Z,97289.17
2019-03-03T19:12:47.878Z,97295.50
2019-03-03T19:19:14.794Z,97280.32
2019-03-03T19:25:40.409Z,97275.98
2019-03-03T19:32:17.313Z,97274.02
2019-03-03T19:38:43.158Z,97267.98
2019-03-03T19:45:16.256Z,97270.28
2019-03-03T19:55:30.334Z,97274.12
2019-03-03T20:01:57.875Z,97250.78
2019-03-03T20:08:40.160Z,97255.52
2019-03-03T20:15:04.729Z,97240.83
2019-03-03T20:21:20.684Z,97226.95
2019-03-03T20:28:01.342Z,97234.60
2019-03-03T20:34:27.483Z,97214.20
2019-03-03T20:40:55.314Z,97200.71
2019-03-03T20:47:21.758Z,97186.84
2019-03-03T20:54:07.153Z,97177.41
2019-03-03T20:59:49.295Z,97160.42
2019-03-03T21:06:15.143Z,97152.36
2019-03-03T21:12:45.223Z,97149.78
2019-03-03T21:19:11.048Z,97150.58
2019-03-03T21:25:37.876Z,97115.61
2019-03-03T21:32:05.506Z,97072.98
2019-03-03T21:38:44.464Z,97091.20
2019-03-03T21:45:16.539Z,97090.09
2019-03-03T21:51:32.067Z,97067.30
2019-03-03T21:57:34.862Z,97038.33
2019-03-03T22:04:12.789Z,97025.64
2019-03-03T22:10:37.606Z,97022.66
2019-03-03T22:17:03.179Z,97005.05
2019-03-03T22:23:42.136Z,96973.38
2019-03-03T22:30:07.985Z,96953.41
2019-03-03T22:36:35.026Z,96955.22
2019-03-03T22:43:00.849Z,96952.83
2019-03-03T22:49:02.189Z,96962.86
2019-03-03T22:55:28.039Z,96944.56
2019-03-03T23:01:48.006Z,96917.93
2019-03-03T23:08:26.698Z,96916.02
2019-03-03T23:15:49.079Z,96899.02
2019-03-03T23:23:47.007Z,96880.55
2019-03-03T23:30:25.636Z,96877.50
2019-03-03T23:37:08.698Z,96872.77
2019-03-03T23:43:34.824Z,96857.70
2019-03-03T23:49:58.630Z,96852.63
2019-03-03T23:56:24.445Z,96860.94
